Time;durP1;ratioP1;P1;durP2;ratioP2;P2;SDS_P1;SDS_P2;PMS_P1;PMS_P2;Temp;Humidity;BMP_temperature;BMP_pressure;BME280_temperature;BME280_humidity;BME280_pressure;Samples;Min_cycle;Max_cycle;Signal;HPM_P1;HPM_P2
2023/09/17 00:02:24;;;;;;;11.03;7.77;;;20.10;99.90;;;20.42;66.63;95440.94;5014142;28;20445;-57
2023/09/17 00:04:51;;;;;;;12.43;7.30;;;20.10;99.90;;;20.40;66.73;95445.66;5017848;28;20473;-68
2023/09/17 00:07:18;;;;;;;7.83;7.07;;;20.10;99.90;;;20.39;66.60;95441.31;5021536;28;20664;-58
2023/09/17 00:09:45;;;;;;;13.23;7.50;;;20.00;99.90;;;20.37;66.63;95435.34;5017858;28;20477;-59
2023/09/17 00:12:13;;;;;;;6.90;6.20;;;20.00;99.90;;;20.37;66.61;95437.16;5020889;28;20510;-59
2023/09/17 00:14:40;;;;;;;12.30;6.17;;;20.00;99.90;;;20.34;66.46;95438.38;5018184;28;20493;-68
2023/09/17 00:17:09;;;;;;;7.33;6.20;;;20.00;99.90;;;20.32;66.29;95437.72;5017249;28;20465;-59
2023/09/17 00:19:36;;;;;;;8.03;5.47;;;20.00;99.90;;;20.29;66.32;95427.41;5017019;28;20509;-59
2023/09/17 00:22:06;;;;;;;6.17;5.67;;;19.90;99.90;;;20.27;66.49;95428.63;5020779;28;20456;-66
2023/09/17 00:24:34;;;;;;;6.93;5.23;;;19.90;99.90;;;20.26;66.17;95425.09;5016517;28;20469;-58
2023/09/17 00:27:02;;;;;;;7.70;5.00;;;19.90;99.90;;;20.28;66.21;95430.25;5018769;28;20485;-58
2023/09/17 00:29:29;;;;;;;6.47;5.87;;;19.90;99.90;;;20.28;66.15;95435.59;5020445;28;20493;-67
2023/09/17 00:31:56;;;;;;;5.57;4.80;;;19.90;99.90;;;20.27;65.90;95428.63;5022428;28;20499;-66
2023/09/17 00:34:25;;;;;;;5.57;5.07;;;19.90;99.90;;;20.26;65.88;95426.97;5019173;28;20476;-65
2023/09/17 00:36:52;;;;;;;5.47;4.97;;;19.90;99.90;;;20.26;65.69;95426.97;5015705;28;20548;-66
2023/09/17 00:39:20;;;;;;;10.93;4.40;;;19.90;99.90;;;20.26;65.93;95426.97;5019105;28;20911;-65
2023/09/17 00:41:47;;;;;;;6.67;5.30;;;19.90;99.90;;;20.22;65.62;95419.31;5016026;28;20454;-67
2023/09/17 00:44:15;;;;;;;5.50;4.80;;;19.90;99.90;;;20.21;65.59;95420.31;5019013;28;20479;-66
2023/09/17 00:46:43;;;;;;;8.43;5.20;;;19.90;99.90;;;20.22;65.54;95421.16;5019870;28;20508;-67
2023/09/17 00:49:13;;;;;;;5.03;4.63;;;19.90;99.90;;;20.22;65.29;95415.81;5019310;28;20473;-57
2023/09/17 00:51:42;;;;;;;10.13;5.90;;;19.90;99.90;;;20.19;65.55;95416.19;5019836;28;20858;-58
2023/09/17 00:54:10;;;;;;;5.17;4.67;;;19.90;99.90;;;20.22;65.71;95421.16;5022221;28;20878;-59
2023/09/17 00:56:38;;;;;;;5.67;4.87;;;19.80;99.90;;;20.22;65.30;95426.50;5019388;28;20493;-59
2023/09/17 00:59:06;;;;;;;5.50;4.37;;;19.80;99.90;;;20.18;64.91;95414.53;5020469;28;20483;-58
2023/09/17 01:01:33;;;;;;;7.83;5.20;;;19.80;99.90;;;20.15;65.25;95417.56;5023564;28;20859;-58
2023/09/17 01:04:00;;;;;;;5.73;5.13;;;19.80;99.90;;;20.14;65.22;95418.56;5022904;28;20466;-58
2023/09/17 01:06:29;;;;;;;6.33;5.67;;;19.80;99.90;;;20.14;65.17;95422.09;5022596;28;20449;-66
2023/09/17 01:08:57;;;;;;;5.30;4.80;;;19.80;99.90;;;20.15;65.55;95420.25;5022310;28;20481;-58
2023/09/17 01:11:25;;;;;;;7.30;5.97;;;19.80;99.90;;;20.15;65.56;95428.25;5022606;28;20987;-65
2023/09/17 01:14:00;;;;;;;8.40;5.83;;;19.80;99.90;;;20.15;65.39;95422.91;5019875;28;20853;-59
2023/09/17 01:16:28;;;;;;;6.83;6.13;;;19.80;99.90;;;20.14;64.99;95418.56;5023204;28;20488;-64
2023/09/17 01:18:55;;;;;;;8.87;6.80;;;19.80;99.90;;;20.13;65.21;95424.94;5021981;28;20484;-66
2023/09/17 01:21:27;;;;;;;9.23;6.47;;;19.80;99.90;;;20.13;65.42;95422.28;5023290;28;20456;-66
2023/09/17 01:24:00;;;;;;;8.77;7.80;;;19.80;99.90;;;20.16;65.51;95425.41;5022208;28;20906;-59
2023/09/17 01:26:28;;;;;;;7.97;7.00;;;19.80;99.90;;;20.19;65.53;95419.69;5020765;28;21008;-65
2023/09/17 01:28:59;;;;;;;8.93;8.13;;;19.80;99.90;;;20.19;65.76;95422.34;5023630;28;20483;-58
2023/09/17 01:31:26;;;;;;;21.57;8.37;;;19.80;99.90;;;20.18;65.65;95411.84;5021254;28;20446;-59
2023/09/17 01:33:54;;;;;;;12.27;9.30;;;19.80;99.90;;;20.18;65.63;95414.53;5020280;28;20559;-67
2023/09/17 01:36:25;;;;;;;10.20;8.73;;;19.80;99.90;;;20.17;66.00;95423.53;5022518;28;20492;-57
2023/09/17 01:39:04;;;;;;;20.07;10.23;;;19.80;99.90;;;20.15;65.97;95418.38;5025277;28;20492;-66
2023/09/17 01:41:31;;;;;;;13.20;10.17;;;19.80;99.90;;;20.15;65.80;95420.25;5018664;28;20846;-58
2023/09/17 01:44:00;;;;;;;10.87;9.80;;;19.80;99.90;;;20.13;66.08;95411.59;5023266;28;20473;-58
2023/09/17 01:46:27;;;;;;;11.70;9.87;;;19.80;99.90;;;20.12;66.24;95420.63;5021033;28;20468;-57
2023/09/17 01:48:54;;;;;;;17.03;12.27;;;19.80;99.90;;;20.11;66.19;95416.28;5023074;28;20523;-66
2023/09/17 01:51:22;;;;;;;15.27;11.90;;;19.80;99.90;;;20.10;66.53;95423.47;5020939;28;20453;-58
2023/09/17 01:53:49;;;;;;;13.43;12.13;;;19.80;99.90;;;20.09;66.60;95426.31;5018120;28;20473;-65
2023/09/17 01:56:17;;;;;;;17.60;13.30;;;19.70;99.90;;;20.09;66.72;95423.66;5020476;28;20492;-64
2023/09/17 01:58:45;;;;;;;19.63;12.17;;;19.70;99.90;;;20.08;66.68;95420.16;5023507;28;20591;-65
2023/09/17 02:01:13;;;;;;;14.63;13.10;;;19.70;99.90;;;20.10;66.68;95425.31;5019104;28;20464;-67
2023/09/17 02:03:41;;;;;;;16.10;12.77;;;19.70;99.90;;;20.11;67.31;95414.47;5019824;28;20575;-66
2023/09/17 02:06:08;;;;;;;18.83;12.90;;;19.80;99.90;;;20.12;66.77;95426.78;5023221;28;20448;-56
2023/09/17 02:08:36;;;;;;;16.27;13.80;;;19.80;99.90;;;20.13;67.21;95417.75;5016447;28;20453;-59
2023/09/17 02:11:06;;;;;;;15.73;13.43;;;19.80;99.90;;;20.12;67.23;95424.09;5013735;28;20478;-58
2023/09/17 02:13:33;;;;;;;19.10;13.60;;;19.80;99.90;;;20.10;66.90;95422.66;5015081;28;20466;-62
2023/09/17 02:16:00;;;;;;;18.30;14.53;;;19.80;99.90;;;20.08;67.56;95419.31;5015134;28;20493;-66
2023/09/17 02:18:29;;;;;;;19.00;14.50;;;19.70;99.90;;;20.05;67.45;95417.88;5015227;28;20453;-60
2023/09/17 02:20:56;;;;;;;14.90;13.30;;;19.70;99.90;;;20.04;67.62;95421.53;5014142;28;20507;-66
2023/09/17 02:23:24;;;;;;;20.77;13.47;;;19.70;99.90;;;20.03;67.33;95422.53;5022902;28;20526;-65
2023/09/17 02:25:51;;;;;;;19.57;14.03;;;19.70;99.90;;;20.01;67.31;95428.06;5019831;28;20453;-57
2023/09/17 02:28:18;;;;;;;19.70;13.53;;;19.70;99.90;;;20.00;67.60;95428.25;5022985;28;20872;-57
2023/09/17 02:30:45;;;;;;;20.03;15.23;;;19.60;99.90;;;19.97;67.56;95440.16;5016070;28;20460;-65
2023/09/17 02:33:12;;;;;;;16.93;13.97;;;19.60;99.90;;;19.95;67.73;95423.47;5022717;28;20461;-58
2023/09/17 02:35:41;;;;;;;17.73;14.30;;;19.60;99.90;;;19.96;67.82;95427.00;5015473;28;20496;-58
2023/09/17 02:38:08;;;;;;;17.43;14.90;;;19.60;99.90;;;19.95;67.86;95423.47;5022238;28;20574;-65
2023/09/17 02:40:35;;;;;;;19.10;14.27;;;19.60;99.90;;;19.93;68.13;95416.66;5021829;28;20480;-66
2023/09/17 02:43:03;;;;;;;22.90;14.67;;;19.60;99.90;;;19.93;67.71;95417.50;5022206;28;20446;-67
2023/09/17 02:45:31;;;;;;;19.27;14.03;;;19.60;99.90;;;19.93;67.88;95414.00;5020676;28;20542;-58
2023/09/17 02:47:58;;;;;;;19.80;13.80;;;19.60;99.90;;;19.91;68.02;95414.19;5021484;28;20548;-67
2023/09/17 02:50:26;;;;;;;17.40;15.07;;;19.60;99.90;;;19.92;67.88;95409.66;5021200;28;20492;-67
2023/09/17 02:52:54;;;;;;;19.43;14.33;;;19.60;99.90;;;19.89;68.08;95405.50;5021608;28;20493;-59
2023/09/17 02:55:22;;;;;;;21.47;13.93;;;19.60;99.90;;;19.87;67.66;95407.56;5018547;28;20480;-56
2023/09/17 02:57:49;;;;;;;19.40;14.70;;;19.50;99.90;;;19.82;67.76;95399.28;5021548;28;20457;-69
2023/09/17 03:00:21;;;;;;;26.60;16.03;;;19.50;99.90;;;19.79;67.69;95397.78;5017580;28;20528;-67
2023/09/17 03:02:54;;;;;;;21.50;16.33;;;19.50;99.90;;;19.80;67.81;95399.47;5022012;28;20487;-65
2023/09/17 03:05:21;;;;;;;17.73;13.50;;;19.50;99.90;;;19.82;68.08;95407.28;5023223;28;20483;-66
2023/09/17 03:07:49;;;;;;;23.77;14.07;;;19.50;99.90;;;19.82;67.75;95401.94;5019873;28;20445;-59
2023/09/17 03:10:20;;;;;;;23.73;14.40;;;19.50;99.90;;;19.85;67.85;95404.25;5021546;28;20569;-58
2023/09/17 03:12:47;;;;;;;18.27;14.00;;;19.50;99.90;;;19.84;67.45;95400.72;5015355;28;20453;-67
2023/09/17 03:15:14;;;;;;;21.37;13.87;;;19.50;99.90;;;19.83;67.55;95401.75;5021549;28;20500;-59
2023/09/17 03:17:42;;;;;;;21.77;12.97;;;19.50;99.90;;;19.82;67.64;95409.94;5020278;28;20476;-66
2023/09/17 03:20:17;;;;;;;16.40;14.10;;;19.50;99.90;;;19.82;67.57;95409.94;5017351;28;20599;-57
2023/09/17 03:22:44;;;;;;;17.80;12.77;;;19.50;99.90;;;19.81;67.65;95408.28;5021925;28;20488;-65
2023/09/17 03:25:12;;;;;;;20.50;14.20;;;19.50;99.90;;;19.81;67.94;95413.63;5017611;28;20599;-58
2023/09/17 03:27:43;;;;;;;14.93;13.00;;;19.50;99.90;;;19.80;67.51;95418.16;5019210;28;20581;-58
2023/09/17 03:30:11;;;;;;;15.63;12.60;;;19.50;99.90;;;19.81;67.47;95418.97;5021976;28;20468;-65
2023/09/17 03:32:38;;;;;;;17.20;12.17;;;19.50;99.90;;;19.82;67.27;95405.44;5017147;28;20456;-58
2023/09/17 03:35:08;;;;;;;20.10;12.10;;;19.50;99.90;;;19.81;67.38;95405.63;5019313;28;20477;-65
2023/09/17 03:37:35;;;;;;;16.70;12.00;;;19.50;99.90;;;19.80;67.15;95412.81;5021639;28;20489;-66
2023/09/17 03:40:10;;;;;;;16.33;12.90;;;19.50;99.90;;;19.79;67.51;95410.31;5019008;28;20504;-59
2023/09/17 03:42:37;;;;;;;15.27;11.37;;;19.50;99.90;;;19.77;67.43;95415.00;5014977;28;20497;-67
2023/09/17 03:45:09;;;;;;;17.17;11.30;;;19.40;99.90;;;19.76;67.20;95410.66;5015739;28;20875;-60
2023/09/17 03:47:37;;;;;;;14.47;11.00;;;19.40;99.90;;;19.74;67.58;95412.69;5015613;28;20545;-59
2023/09/17 03:50:06;;;;;;;20.27;12.10;;;19.40;99.90;;;19.74;67.71;95415.34;5022359;28;20487;-58
2023/09/17 03:52:33;;;;;;;30.30;19.90;;;19.40;99.90;;;19.73;67.17;95424.38;5018261;28;20449;-64
2023/09/17 03:55:00;;;;;;;19.03;14.13;;;19.40;99.90;;;19.73;67.42;95422.50;5018705;28;20481;-57
2023/09/17 03:57:28;;;;;;;16.27;10.50;;;19.40;99.90;;;19.73;67.06;95429.72;5018055;28;20489;-58
2023/09/17 03:59:55;;;;;;;13.43;11.07;;;19.40;99.90;;;19.72;67.25;95436.91;5014829;28;20532;-66
2023/09/17 04:02:24;;;;;;;26.97;20.40;;;19.40;99.90;;;19.70;67.39;95434.41;5018356;28;20460;-59
2023/09/17 04:04:52;;;;;;;21.67;13.40;;;19.40;99.90;;;19.70;67.46;95434.41;5012790;28;20472;-58
2023/09/17 04:07:19;;;;;;;29.63;19.43;;;19.40;99.90;;;19.71;67.10;95436.03;5014100;28;20500;-59
2023/09/17 04:09:46;;;;;;;19.53;14.13;;;19.40;99.90;;;19.70;67.48;95445.09;5021600;28;21162;-66
2023/09/17 04:12:14;;;;;;;19.43;11.67;;;19.40;99.90;;;19.73;67.41;95433.19;5018481;28;20457;-59
2023/09/17 04:14:41;;;;;;;20.50;12.67;;;19.40;99.90;;;19.75;67.71;95427.66;5015615;28;20511;-64
2023/09/17 04:17:09;;;;;;;16.30;11.00;;;19.40;99.90;;;19.78;67.53;95443.34;5019160;28;20489;-65
2023/09/17 04:19:38;;;;;;;26.77;18.57;;;19.40;99.90;;;19.79;67.88;95442.34;5021213;28;20509;-56
2023/09/17 04:22:05;;;;;;;13.70;11.70;;;19.40;99.90;;;19.81;67.50;95437.66;5019138;28;20453;-58
2023/09/17 04:24:32;;;;;;;16.80;12.20;;;19.50;99.90;;;19.83;67.43;95443.63;5022351;28;20481;-66
2023/09/17 04:26:59;;;;;;;19.63;10.40;;;19.50;99.90;;;19.83;67.54;95440.94;5016298;28;20457;-58
2023/09/17 04:29:27;;;;;;;22.73;10.80;;;19.50;99.90;;;19.83;67.51;95446.28;5024427;28;20511;-66
2023/09/17 04:31:54;;;;;;;21.63;11.93;;;19.50;99.90;;;19.82;67.37;95445.47;5023397;28;20452;-60
2023/09/17 04:34:22;;;;;;;19.13;13.50;;;19.50;99.90;;;19.81;67.70;95446.47;5023891;28;20481;-58
2023/09/17 04:36:51;;;;;;;22.33;12.53;;;19.50;99.90;;;19.82;67.78;95442.81;5023374;28;20488;-59
2023/09/17 04:39:18;;;;;;;14.73;11.93;;;19.50;99.90;;;19.81;67.79;95443.00;5023723;28;20500;-58
2023/09/17 04:41:46;;;;;;;19.20;13.57;;;19.50;99.90;;;19.79;67.85;95440.50;5023038;28;20515;-59
2023/09/17 04:44:13;;;;;;;21.23;13.37;;;19.50;99.90;;;19.83;68.04;95444.47;5020519;28;20540;-66
2023/09/17 04:46:40;;;;;;;18.83;12.10;;;19.50;99.90;;;19.83;68.07;95441.81;5023381;28;20450;-60
2023/09/17 04:49:08;;;;;;;16.70;12.47;;;19.50;99.90;;;19.84;67.78;95442.63;5023746;28;20556;-66
2023/09/17 04:51:35;;;;;;;17.30;12.83;;;19.50;99.90;;;19.84;67.96;95446.09;5023849;28;20835;-66
2023/09/17 04:54:04;;;;;;;19.93;13.33;;;19.50;99.90;;;19.84;68.23;95434.63;5020565;28;20559;-60
2023/09/17 04:56:32;;;;;;;20.10;13.63;;;19.50;99.90;;;19.83;68.14;95439.13;5022112;28;20545;-58
2023/09/17 04:58:59;;;;;;;18.63;14.10;;;19.50;99.90;;;19.85;67.88;95437.09;5023468;28;20472;-69
2023/09/17 05:01:27;;;;;;;17.30;11.90;;;19.50;99.90;;;19.86;68.15;95440.59;5022307;28;20514;-62
2023/09/17 05:03:54;;;;;;;18.60;14.03;;;19.50;99.90;;;19.90;68.20;95439.22;5020870;28;21024;-60
2023/09/17 05:06:21;;;;;;;19.63;14.07;;;19.50;99.90;;;19.91;68.17;95446.22;5022590;28;20457;-66
2023/09/17 05:08:49;;;;;;;18.30;12.57;;;19.50;99.90;;;19.92;68.29;95442.53;5024002;28;20477;-58
2023/09/17 05:11:17;;;;;;;29.77;13.30;;;19.60;99.90;;;19.96;68.44;95445.69;5021283;28;20449;-66
2023/09/17 05:13:45;;;;;;;21.23;13.93;;;19.60;99.90;;;19.97;68.58;95450.84;5019531;28;20484;-66
2023/09/17 05:16:12;;;;;;;25.53;14.30;;;19.60;99.90;;;19.98;68.44;95451.66;5019985;28;20547;-58
2023/09/17 05:18:39;;;;;;;25.47;14.17;;;19.60;99.90;;;19.99;68.57;95447.97;5023892;28;20552;-67
2023/09/17 05:21:07;;;;;;;18.00;13.20;;;19.60;99.90;;;20.00;68.38;95453.13;5020854;28;20446;-66
2023/09/17 05:23:34;;;;;;;20.87;12.53;;;19.70;99.90;;;20.01;68.73;95448.63;5021965;28;20470;-57
2023/09/17 05:26:01;;;;;;;18.90;13.10;;;19.70;99.90;;;20.01;68.58;95452.09;5016870;28;20465;-56
2023/09/17 05:28:30;;;;;;;18.33;12.97;;;19.70;99.90;;;20.03;68.81;95450.09;5016325;28;20465;-70
2023/09/17 05:30:57;;;;;;;14.93;13.33;;;19.70;99.90;;;20.01;68.98;95452.09;5020725;28;20512;-71
2023/09/17 05:33:26;;;;;;;27.80;13.97;;;19.70;99.90;;;20.04;69.04;95457.06;5016080;28;21009;-71
2023/09/17 05:35:56;;;;;;;24.63;16.73;;;19.70;99.90;;;20.10;68.85;95460.84;5021254;28;20525;-71
2023/09/17 05:38:24;;;;;;;17.63;13.20;;;19.70;99.90;;;20.15;69.27;95454.97;5020755;28;20452;-58
2023/09/17 05:40:51;;;;;;;20.00;11.83;;;19.70;99.90;;;20.21;68.89;95464.91;5016901;28;20481;-57
2023/09/17 05:43:19;;;;;;;21.73;13.63;;;19.80;99.90;;;20.26;68.74;95462.50;5024081;28;20476;-57
2023/09/17 05:45:49;;;;;;;27.13;14.73;;;19.90;99.90;;;20.29;68.81;95461.31;5017031;28;20462;-71
2023/09/17 05:48:16;;;;;;;18.90;13.57;;;19.90;99.90;;;20.33;68.76;95459.94;5016799;28;20500;-71
2023/09/17 05:50:44;;;;;;;17.73;13.50;;;19.90;99.90;;;20.37;68.83;95458.53;5025528;28;20455;-72
2023/09/17 05:53:11;;;;;;;21.33;15.23;;;20.00;99.90;;;20.41;68.68;95463.31;5020410;28;20469;-66
2023/09/17 05:55:38;;;;;;;27.60;15.60;;;20.00;99.90;;;20.48;68.65;95462.56;5023671;28;20475;-65
2023/09/17 05:58:06;;;;;;;26.57;17.43;;;20.10;99.90;;;20.50;68.50;95466.72;5020205;28;20491;-59
2023/09/17 06:00:33;;;;;;;22.70;15.67;;;20.10;99.90;;;20.53;68.64;95457.50;5018622;28;20481;-59
2023/09/17 06:03:02;;;;;;;27.80;17.33;;;20.20;99.90;;;20.55;68.59;95458.16;5023763;28;20518;-57
2023/09/17 06:05:29;;;;;;;20.90;16.83;;;20.20;99.90;;;20.55;68.27;95450.94;5020532;28;20486;-65
2023/09/17 06:07:56;;;;;;;24.30;18.00;;;20.20;99.90;;;20.56;68.69;95460.63;5022895;28;20457;-59
2023/09/17 06:10:23;;;;;;;29.40;18.90;;;20.20;99.90;;;20.57;68.60;95462.28;5020291;28;20476;-58
2023/09/17 06:12:51;;;;;;;31.63;18.97;;;20.20;99.90;;;20.63;68.74;95462.56;5022448;28;20477;-58
2023/09/17 06:15:19;;;;;;;29.60;17.63;;;20.30;99.90;;;20.68;68.70;95463.69;5022014;28;20476;-59
2023/09/17 06:17:46;;;;;;;36.70;20.03;;;20.30;99.90;;;20.76;68.72;95470.78;5021734;28;20489;-65
2023/09/17 06:20:15;;;;;;;37.33;26.30;;;20.40;99.90;;;20.84;68.74;95472.50;5021763;28;20476;-65
2023/09/17 06:22:42;;;;;;;32.27;22.13;;;20.50;99.90;;;20.88;68.43;95474.59;5020718;28;20482;-58
2023/09/17 06:25:09;;;;;;;23.57;18.60;;;20.50;99.90;;;20.92;68.34;95475.88;5022085;28;20900;-67
2023/09/17 06:27:37;;;;;;;37.63;20.13;;;20.60;99.90;;;20.94;68.31;95467.66;5019456;28;20492;-58
2023/09/17 06:30:06;;;;;;;29.43;20.07;;;20.60;99.90;;;20.95;68.60;95474.66;5022202;28;20473;-58
2023/09/17 06:32:33;;;;;;;28.93;19.47;;;20.60;99.90;;;20.97;68.23;95469.94;5021512;28;20483;-65
2023/09/17 06:35:00;;;;;;;30.73;20.53;;;20.60;99.90;;;21.03;68.42;95471.88;5021380;28;20478;-66
2023/09/17 06:37:29;;;;;;;33.67;21.87;;;20.70;99.90;;;21.08;68.27;95464.09;5017009;28;20861;-66
2023/09/17 06:39:57;;;;;;;33.33;21.57;;;20.70;99.90;;;21.15;68.44;95469.53;5021938;28;20504;-58
2023/09/17 06:42:24;;;;;;;34.00;21.70;;;20.80;99.90;;;21.25;67.99;95474.53;5020235;28;20461;-59
2023/09/17 06:44:51;;;;;;;29.90;21.17;;;20.80;99.90;;;21.31;67.76;95473.78;5021621;28;20469;-60
2023/09/17 06:47:19;;;;;;;26.03;18.77;;;20.90;99.90;;;21.39;67.95;95470.97;5020482;28;20461;-66
2023/09/17 06:49:46;;;;;;;27.70;19.13;;;21.00;99.90;;;21.46;67.29;95471.84;5022070;28;20594;-58
2023/09/17 06:52:13;;;;;;;28.87;20.37;;;21.10;99.90;;;21.56;67.75;95478.75;5018677;28;20461;-58
2023/09/17 06:54:43;;;;;;;24.10;18.83;;;21.20;99.90;;;21.63;67.44;95483.16;5015648;28;20477;-58
2023/09/17 06:57:10;;;;;;;28.07;20.00;;;21.20;99.90;;;21.70;67.10;95485.88;5019541;28;20504;-57
2023/09/17 06:59:38;;;;;;;25.50;18.17;;;21.30;99.90;;;21.76;66.58;95481.59;5018516;28;20540;-72
2023/09/17 07:02:05;;;;;;;64.90;36.10;;;21.40;99.90;;;21.79;66.64;95482.03;5022965;28;21019;-66
2023/09/17 07:04:32;;;;;;;29.27;18.40;;;21.40;99.90;;;21.87;66.55;95497.13;5019489;28;20480;-68
2023/09/17 07:07:00;;;;;;;24.90;19.13;;;21.50;99.90;;;21.91;66.19;95478.84;5018120;28;20492;-59
2023/09/17 07:09:28;;;;;;;30.83;19.77;;;21.60;99.90;;;21.97;66.20;95491.44;5013947;28;20532;-58
2023/09/17 07:11:57;;;;;;;32.03;19.70;;;21.60;99.90;;;22.05;66.08;95490.47;5013572;28;20445;-66
2023/09/17 07:14:24;;;;;;;31.13;19.50;;;21.60;99.90;;;22.19;65.87;95487.66;5014341;28;21014;-64
2023/09/17 07:16:51;;;;;;;29.70;19.50;;;21.80;99.90;;;22.34;65.94;95492.94;5017289;28;20493;-65
2023/09/17 07:19:18;;;;;;;26.80;18.43;;;21.90;99.90;;;22.46;65.12;95485.16;5020714;28;20575;-66
2023/09/17 07:21:45;;;;;;;26.67;17.33;;;22.00;99.90;;;22.80;64.69;95485.28;5017591;28;20523;-59
2023/09/17 07:24:13;;;;;;;27.67;17.93;;;22.30;99.90;;;23.22;64.38;95480.69;5020336;28;20492;-68
2023/09/17 07:26:41;;;;;;;39.87;18.07;;;22.70;99.90;;;23.69;63.72;95494.19;5021782;28;20844;-66
2023/09/17 07:29:10;;;;;;;23.43;16.43;;;23.10;99.90;;;24.05;62.73;95506.38;5014893;28;20505;-67
2023/09/17 07:31:37;;;;;;;20.30;16.13;;;23.50;99.90;;;24.30;61.90;95507.34;5022733;28;20448;-66
2023/09/17 07:34:04;;;;;;;23.90;16.13;;;23.80;99.90;;;24.44;60.30;95516.22;5019469;28;20472;-65
2023/09/17 07:36:31;;;;;;;22.80;17.20;;;24.00;99.90;;;24.51;60.07;95516.22;5022180;28;20965;-66
2023/09/17 07:38:59;;;;;;;28.40;18.00;;;24.10;99.90;;;24.51;59.97;95508.16;5019621;28;20920;-65
2023/09/17 07:41:26;;;;;;;21.13;16.20;;;24.10;99.90;;;24.54;60.18;95510.41;5021539;28;20893;-66
2023/09/17 07:43:53;;;;;;;21.43;16.10;;;24.20;99.60;;;24.56;59.27;95512.91;5021798;28;20502;-66
2023/09/17 07:46:22;;;;;;;26.90;17.07;;;24.20;99.50;;;24.61;59.41;95521.19;5023366;28;20449;-67
2023/09/17 07:48:50;;;;;;;24.00;17.47;;;24.20;99.40;;;24.60;58.76;95516.81;5020722;28;20472;-67
2023/09/17 07:51:18;;;;;;;41.20;23.30;;;24.30;99.00;;;24.57;58.80;95510.03;5019192;28;20449;-67
2023/09/17 07:53:46;;;;;;;28.77;21.17;;;24.20;98.90;;;24.52;58.62;95517.84;5021074;28;20518;-67
2023/09/17 07:56:13;;;;;;;32.30;22.80;;;24.20;98.60;;;24.44;58.69;95508.16;5021549;28;20464;-66
2023/09/17 07:58:41;;;;;;;27.37;19.97;;;24.10;98.60;;;24.43;58.97;95519.13;5019899;28;20876;-70
2023/09/17 08:01:08;;;;;;;29.57;19.53;;;24.10;98.60;;;24.48;59.31;95522.03;5021356;28;20449;-69
2023/09/17 08:03:38;;;;;;;27.60;17.30;;;24.10;98.70;;;24.51;58.26;95508.16;5020020;28;20449;-65
2023/09/17 08:06:05;;;;;;;27.57;19.73;;;24.10;98.60;;;24.49;58.85;95513.75;5017952;28;20869;-66
2023/09/17 08:08:33;;;;;;;31.87;22.30;;;24.10;98.60;;;24.55;58.66;95511.22;5017876;28;20547;-64
2023/09/17 08:11:01;;;;;;;25.67;17.73;;;24.20;98.60;;;24.61;58.06;95511.22;5020201;28;20441;-66
2023/09/17 08:13:28;;;;;;;40.83;19.53;;;24.20;98.40;;;24.64;58.58;95513.50;5021279;28;20456;-67
2023/09/17 08:15:55;;;;;;;30.83;21.60;;;24.20;98.40;;;24.63;57.92;95519.94;5018826;28;20867;-66
2023/09/17 08:18:23;;;;;;;26.13;19.70;;;24.20;98.20;;;24.60;58.50;95516.81;5019481;28;20500;-66
2023/09/17 08:20:52;;;;;;;30.50;20.40;;;24.20;98.00;;;24.57;58.40;95518.09;5021336;28;20616;-66
2023/09/17 08:23:19;;;;;;;26.63;20.00;;;24.10;98.10;;;24.61;58.28;95519.31;5018386;28;20464;-65
2023/09/17 08:25:46;;;;;;;38.33;21.60;;;24.20;98.10;;;24.67;57.62;95513.06;5018170;28;20444;-65
2023/09/17 08:28:32;;;;;;;37.83;23.23;;;24.20;97.90;;;24.74;57.60;95506.84;5018155;28;20473;-59
2023/09/17 08:30:59;;;;;;;33.20;22.57;;;24.30;97.90;;;24.84;57.70;95505.34;5006621;28;20448;-59
2023/09/17 08:33:27;;;;;;;35.07;21.10;;;24.40;97.80;;;24.97;57.73;95511.72;5008631;28;20487;-59
2023/09/17 08:35:55;;;;;;;33.93;21.60;;;24.50;97.60;;;24.99;57.45;95502.41;5018661;28;20459;-66
2023/09/17 08:38:23;;;;;;;37.20;23.17;;;24.60;97.30;;;25.01;57.60;95508.38;5014133;28;20504;-66
2023/09/17 08:40:50;;;;;;;30.83;22.13;;;24.60;97.30;;;25.15;57.03;95501.06;5010546;28;20844;-66
2023/09/17 08:43:17;;;;;;;31.87;24.33;;;24.70;97.20;;;25.26;57.08;95502.25;5018208;28;20550;-66
2023/09/17 08:45:45;;;;;;;40.53;22.83;;;24.80;97.00;;;25.35;56.96;95503.66;5018499;28;20456;-59
2023/09/17 08:48:13;;;;;;;28.13;22.60;;;24.90;96.90;;;25.41;56.51;95496.59;5019521;28;20529;-68
2023/09/17 08:50:40;;;;;;;31.83;22.90;;;24.90;96.60;;;25.41;56.34;95497.41;5018913;28;20464;-59
2023/09/17 08:53:09;;;;;;;31.90;23.70;;;25.00;96.30;;;25.40;56.12;95501.16;5018653;28;20457;-57
2023/09/17 08:55:36;;;;;;;35.43;19.70;;;25.00;96.30;;;25.39;56.04;95496.81;5018741;28;20570;-58
2023/09/17 08:58:10;;;;;;;30.13;21.20;;;24.90;95.90;;;25.31;55.74;95499.75;5016489;28;20498;-59
2023/09/17 09:00:37;;;;;;;29.60;23.10;;;24.90;95.80;;;25.23;56.14;95497.28;5019146;28;20468;-66
2023/09/17 09:03:06;;;;;;;36.07;22.53;;;24.80;95.90;;;25.20;56.31;95503.09;5018043;28;20455;-61
2023/09/17 09:05:34;;;;;;;31.37;22.77;;;24.80;96.00;;;25.21;56.52;95489.44;5016498;28;20538;-60
2023/09/17 09:08:03;;;;;;;29.77;21.63;;;24.80;96.10;;;25.30;55.77;95500.81;5019491;28;20495;-59
2023/09/17 09:10:31;;;;;;;29.90;21.60;;;24.80;95.90;;;25.38;55.63;95489.78;5017963;28;20558;-60
2023/09/17 09:13:00;;;;;;;30.90;21.80;;;24.90;95.70;;;25.54;55.84;95487.59;5018907;28;20827;-60
2023/09/17 09:15:27;;;;;;;31.30;22.50;;;25.00;95.80;;;25.66;55.36;95480.47;5014032;28;20877;-66
2023/09/17 09:17:55;;;;;;;26.00;20.30;;;25.20;95.50;;;25.73;55.17;95486.63;5020252;28;20488;-62
2023/09/17 09:20:23;;;;;;;39.07;21.57;;;25.30;95.20;;;25.86;54.92;95476.78;5021186;28;20956;-61
2023/09/17 09:22:50;;;;;;;25.60;20.50;;;25.40;95.00;;;26.14;54.48;95486.31;5021981;28;20478;-61
2023/09/17 09:25:18;;;;;;;29.43;21.47;;;25.60;94.90;;;26.34;53.96;95481.53;5021166;28;21004;-61
2023/09/17 09:27:47;;;;;;;34.20;21.10;;;25.80;94.30;;;26.52;53.57;95485.28;5021161;28;20468;-60
2023/09/17 09:30:15;;;;;;;28.13;21.07;;;25.90;93.80;;;26.62;53.21;95480.19;5020279;28;20472;-60
2023/09/17 09:32:43;;;;;;;30.27;19.93;;;26.10;93.30;;;26.69;52.96;95472.84;5020246;28;20492;-60
2023/09/17 09:35:10;;;;;;;26.07;20.23;;;26.20;92.90;;;26.84;53.16;95478.69;5021296;28;20542;-60
2023/09/17 09:37:38;;;;;;;33.30;19.83;;;26.30;92.80;;;27.12;52.55;95476.47;5020844;28;20579;-59
2023/09/17 09:40:07;;;;;;;30.83;21.27;;;26.50;92.70;;;27.32;51.69;95481.63;5021783;28;20464;-59
2023/09/17 09:42:34;;;;;;;31.73;20.03;;;26.70;91.90;;;27.50;51.67;95478.84;5019195;28;20468;-59
2023/09/17 09:45:03;;;;;;;26.70;19.10;;;26.90;91.60;;;27.74;51.13;95484.28;5016548;28;20480;-60
2023/09/17 09:47:31;;;;;;;126.13;25.67;;;27.20;91.30;;;28.01;50.71;95483.88;5019628;28;20957;-59
2023/09/17 09:50:00;;;;;;;26.93;19.20;;;27.40;90.80;;;28.33;49.78;95489.75;5016170;28;20491;-61
2023/09/17 09:52:28;;;;;;;44.87;22.13;;;27.70;90.10;;;28.53;49.73;95491.28;5018469;28;20464;-59
2023/09/17 09:54:55;;;;;;;25.93;18.87;;;27.90;88.70;;;28.74;48.26;95484.44;5020201;28;20568;-60
2023/09/17 09:57:25;;;;;;;23.33;18.53;;;28.20;86.70;;;28.91;48.99;95482.63;5013613;28;20523;-60
2023/09/17 09:59:52;;;;;;;25.53;20.50;;;28.40;86.30;;;29.12;47.88;95483.00;5016773;28;20469;-60
2023/09/17 10:02:21;;;;;;;25.33;18.93;;;28.50;84.70;;;29.23;47.95;95482.16;5020276;28;20449;-60
2023/09/17 10:04:49;;;;;;;27.33;19.47;;;28.60;83.80;;;29.32;47.99;95480.72;5016270;28;20484;-65
2023/09/17 10:07:17;;;;;;;28.20;19.33;;;28.70;83.10;;;29.32;47.83;95475.28;5009426;28;20459;-65
2023/09/17 10:09:44;;;;;;;21.97;18.97;;;28.80;81.60;;;29.21;47.60;95473.47;5010884;28;20994;-68
2023/09/17 10:12:12;;;;;;;24.83;19.57;;;28.70;81.50;;;29.13;46.54;95473.84;5010590;28;20460;-67